Lapis Arrow — C6VH5 — position and weather

sailwx.info

Track history (hours):
 
Tides and Currents Weather Stations Pressure Air Temp Water Temp Dewpoint Dewpoint Depression Visibility Wind Speed Wind Dir Waves Ship Positions

Lapis Arrow

Last reported at 2017-Feb-20 18:08 UTC. Time now 2017-Feb-22 04:07 UTC.
Position N 39°26' W 000°18'.

Length 176 m; draft 7.3 m.

Type: Cargo ship. MMSI: 308800800.

Date/timePositionNaut miles runAvg speedWind from/ knotsBaromVisibWave heightAir tempDewpointWater temp
2017-Feb-20 18:08N 39°26' W 000°18'2 4.0
2017-Feb-20 17:34N 39°25' W 000°16'4 4.3
2017-Feb-20 16:34N 39°27' W 000°10'3516.5
2017-Feb-20 14:25N 39°39' E 000°33'1919.2
2017-Feb-20 13:27N 39°47' E 000°54'1820.1
2017-Feb-20 12:33N 39°55' E 001°15'2019.8
2017-Feb-20 11:33N 40°05' E 001°38'2020.0
2017-Feb-20 10:33N 40°14' E 002°01'2019.8
2017-Feb-20 09:33N 40°24' E 002°23'2019.2
2017-Feb-20 08:32N 40°33' E 002°46'2019.8
2017-Feb-20 07:32N 40°43' E 003°09'29319.3
2017-Feb-19 16:22N 43°03' E 008°54'1819.3
2017-Feb-19 15:27N 43°12' E 009°16'1719.2
2017-Feb-19 14:33N 43°17' E 009°38'1918.5
2017-Feb-19 13:33N 43°23' E 010°02'1514.9
2017-Feb-19 12:33N 43°33' E 010°17'2 2.0
2017-Feb-19 11:33N 43°35' E 010°19'0 0.0
2017-Feb-19 10:32N 43°35' E 010°19'0 0.0
2017-Feb-19 09:25N 43°35' E 010°19'0 0.0
2017-Feb-19 08:29N 43°35' E 010°19'0 0.0
2017-Feb-19 07:26N 43°35' E 010°19'0 0.0
2017-Feb-19 06:33N 43°35' E 010°19'0 0.0
2017-Feb-19 05:31N 43°35' E 010°19'0 0.0
2017-Feb-19 04:33N 43°35' E 010°19'0 0.0
2017-Feb-19 03:32N 43°35' E 010°19'0 0.0
2017-Feb-19 02:30N 43°35' E 010°19'0 0.0
2017-Feb-19 01:33N 43°35' E 010°19'5 4.8
2017-Feb-19 00:33N 43°31' E 010°15'5 5.2
2017-Feb-18 23:33N 43°27' E 010°10'0 0.4
2017-Feb-18 22:33N 43°27' E 010°10'1 0.8
2017-Feb-18 21:33N 43°26' E 010°10'8 8.0
2017-Feb-18 20:33N 43°21' E 010°01'1919.1
2017-Feb-18 19:33N 43°17' E 009°35'1919.2
2017-Feb-18 18:33N 43°12' E 009°10'1919.2
2017-Feb-18 17:33N 43°05' E 008°45'1919.0
2017-Feb-18 16:33N 42°58' E 008°21'2218.8
2017-Feb-18 15:22N 42°50' E 007°52'20318.8
2017-Feb-18 04:33N 41°39' E 003°35'1918.8
2017-Feb-18 03:33N 41°32' E 003°11'2018.9
2017-Feb-18 02:31N 41°26' E 002°46'1819.0
2017-Feb-18 01:33N 41°19' E 002°24'1110.5
2017-Feb-18 00:33N 41°21' E 002°10'1 0.2
2017-Feb-17 21:11N 41°20' E 002°09'0 0.0
2017-Feb-17 19:33N 41°20' E 002°09'0 0.0
2017-Feb-17 11:21N 41°20' E 002°09'6 6.4
2017-Feb-17 10:28N 41°15' E 002°10'1314.5
2017-Feb-17 09:33N 41°03' E 002°04'1615.6
2017-Feb-17 08:33N 40°48' E 001°56'1615.6
2017-Feb-17 07:33N 40°34' E 001°48'1615.9
2017-Feb-17 06:33N 40°19' E 001°40'1716.5
2017-Feb-17 05:33N 40°04' E 001°31'1616.4
2017-Feb-17 04:33N 39°48' E 001°23'1616.3
2017-Feb-17 03:33N 39°33' E 001°15'4919.7
2017-Feb-17 01:04N 38°48' E 000°51'32316.5
2017-Feb-16 05:26N 36°02' W 004°59'1214.0
2017-Feb-16 04:33N 36°00' W 005°14'1413.6
2017-Feb-16 03:33N 35°56' W 005°30'20911.6
2017-Feb-15 09:33N 37°23' W 009°27'1815.4
2017-Feb-15 08:21N 37°41' W 009°19'1215.2
2017-Feb-15 07:33N 37°52' W 009°14'1515.4
2017-Feb-15 06:33N 38°07' W 009°08'1515.3
2017-Feb-15 05:33N 38°21' W 009°02'1211.7
2017-Feb-15 04:34N 38°31' W 008°54'1 1.3
2017-Feb-15 03:28N 38°31' W 008°52'0 0.0
2017-Feb-15 02:29N 38°31' W 008°52'0 0.0
2017-Feb-15 01:26N 38°31' W 008°52'0 0.0
2017-Feb-15 00:29N 38°31' W 008°52'0 0.0
2017-Feb-14 23:31N 38°31' W 008°52'0 0.0
2017-Feb-14 22:31N 38°31' W 008°52'0 0.0
2017-Feb-14 21:31N 38°31' W 008°52'0 0.0
2017-Feb-14 20:32N 38°31' W 008°52'0 0.0
2017-Feb-14 19:33N 38°31' W 008°52'4 3.8
2017-Feb-14 18:33N 38°29' W 008°56'8 7.6
2017-Feb-14 17:33N 38°23' W 009°03'1313.2
2017-Feb-14 16:33N 38°24' W 009°20'1817.8
2017-Feb-14 15:33N 38°30' W 009°41'1818.4
2017-Feb-14 14:33N 38°36' W 010°03'1817.8
2017-Feb-14 13:34N 38°54' W 010°06'70617.2
2017-Feb-12 20:27N 49°48' W 003°54'1516.9
2017-Feb-12 19:34N 49°59' W 003°38'1414.0
2017-Feb-12 18:34N 50°11' W 003°27'1211.8
2017-Feb-12 17:33N 50°22' W 003°27'1211.8
2017-Feb-12 16:34N 50°26' W 003°09'2020.4
2017-Feb-12 15:34N 50°25' W 002°37'2322.2
2017-Feb-12 14:32N 50°26' W 002°01'2222.0
2017-Feb-12 13:33N 50°27' W 001°27'2121.3
2017-Feb-12 12:33N 50°29' W 000°54'1918.8
2017-Feb-12 11:33N 50°31' W 000°25'1717.3
2017-Feb-12 10:34N 50°33' E 000°02'1616.4
2017-Feb-12 09:33N 50°37' E 000°27'1717.3
2017-Feb-12 08:33N 50°45' E 000°52'2019.9
2017-Feb-12 07:33N 50°55' E 001°18'2121.0
2017-Feb-12 06:33N 51°11' E 001°41'1918.9
2017-Feb-12 05:33N 51°25' E 002°01'1717.4
2017-Feb-12 04:34N 51°23' E 002°29'1515.1
2017-Feb-12 03:33N 51°23' E 002°53'1616.2
2017-Feb-12 02:33N 51°24' E 003°19'1312.7
2017-Feb-12 01:33N 51°26' E 003°39'1110.9
2017-Feb-12 00:33N 51°22' E 003°55'9 8.9
2017-Feb-11 23:33N 51°23' E 004°10'7 6.7
2017-Feb-11 22:34N 51°17' E 004°16'1 1.2
2017-Feb-11 21:34N 51°16' E 004°15'1 1.1
2017-Feb-11 20:26N 51°16' E 004°13'0 0.0
2017-Feb-11 19:30N 51°16' E 004°13'0 0.0
2017-Feb-11 18:33N 51°16' E 004°13'0 0.0
2017-Feb-11 17:30N 51°16' E 004°13'0 0.0
2017-Feb-11 16:27N 51°16' E 004°13'0 0.0
2017-Feb-11 15:30N 51°16' E 004°13'0 0.0
2017-Feb-11 14:27N 51°16' E 004°13'0 0.0
2017-Feb-11 13:29N 51°16' E 004°13'0 0.0
2017-Feb-11 12:33N 51°16' E 004°13'0 0.0
2017-Feb-11 11:31N 51°16' E 004°13'0 0.0
2017-Feb-11 10:27N 51°16' E 004°13'0 0.0
2017-Feb-11 09:31N 51°16' E 004°13'0 0.0
2017-Feb-11 08:27N 51°16' E 004°13'0 0.0
2017-Feb-11 07:30N 51°16' E 004°13'0 0.0
2017-Feb-11 06:33N 51°16' E 004°13'0 0.0
2017-Feb-11 05:26N 51°16' E 004°13'0 0.0
2017-Feb-11 04:22N 51°16' E 004°13'0 0.0
2017-Feb-11 03:26N 51°16' E 004°13'0 0.0
2017-Feb-11 02:30N 51°16' E 004°13'0 0.0
2017-Feb-11 01:28N 51°16' E 004°13'0 0.0
2017-Feb-11 00:32N 51°16' E 004°13'0 0.0
2017-Feb-10 23:28N 51°16' E 004°13'0 0.0
2017-Feb-10 22:33N 51°16' E 004°13'0 0.0
2017-Feb-10 21:28N 51°16' E 004°13'0 0.0
2017-Feb-10 20:32N 51°16' E 004°13'1 1.2
2017-Feb-10 19:33N 51°16' E 004°14'1 0.8
2017-Feb-10 18:33N 51°17' E 004°15'  
Track history (hours):
 
Tides and Currents Weather Stations Pressure Air Temp Water Temp Dewpoint Dewpoint Depression Visibility Wind Speed Wind Dir Waves Ship Positions

Lapis Arrow

Last reported at 2017-Feb-20 18:08 UTC. Time now 2017-Feb-22 04:07 UTC.
Position N 39°26' W 000°18'.

Length 176 m; draft 7.3 m.

Type: Cargo ship. MMSI: 308800800.

Date/timePositionNaut miles runAvg speedWind from/ knotsBaromVisibWave heightAir tempDewpointWater temp
2017-Feb-20 18:08N 39°26' W 000°18'2 4.0
2017-Feb-20 17:34N 39°25' W 000°16'4 4.3
2017-Feb-20 16:34N 39°27' W 000°10'3516.5
2017-Feb-20 14:25N 39°39' E 000°33'1919.2
2017-Feb-20 13:27N 39°47' E 000°54'1820.1
2017-Feb-20 12:33N 39°55' E 001°15'2019.8
2017-Feb-20 11:33N 40°05' E 001°38'2020.0
2017-Feb-20 10:33N 40°14' E 002°01'2019.8
2017-Feb-20 09:33N 40°24' E 002°23'2019.2
2017-Feb-20 08:32N 40°33' E 002°46'2019.8
2017-Feb-20 07:32N 40°43' E 003°09'29319.3
2017-Feb-19 16:22N 43°03' E 008°54'1819.3
2017-Feb-19 15:27N 43°12' E 009°16'1719.2
2017-Feb-19 14:33N 43°17' E 009°38'1918.5
2017-Feb-19 13:33N 43°23' E 010°02'1514.9
2017-Feb-19 12:33N 43°33' E 010°17'2 2.0
2017-Feb-19 11:33N 43°35' E 010°19'0 0.0
2017-Feb-19 10:32N 43°35' E 010°19'0 0.0
2017-Feb-19 09:25N 43°35' E 010°19'0 0.0
2017-Feb-19 08:29N 43°35' E 010°19'0 0.0
2017-Feb-19 07:26N 43°35' E 010°19'0 0.0
2017-Feb-19 06:33N 43°35' E 010°19'0 0.0
2017-Feb-19 05:31N 43°35' E 010°19'0 0.0
2017-Feb-19 04:33N 43°35' E 010°19'0 0.0
2017-Feb-19 03:32N 43°35' E 010°19'0 0.0
2017-Feb-19 02:30N 43°35' E 010°19'0 0.0
2017-Feb-19 01:33N 43°35' E 010°19'5 4.8
2017-Feb-19 00:33N 43°31' E 010°15'5 5.2
2017-Feb-18 23:33N 43°27' E 010°10'0 0.4
2017-Feb-18 22:33N 43°27' E 010°10'1 0.8
2017-Feb-18 21:33N 43°26' E 010°10'8 8.0
2017-Feb-18 20:33N 43°21' E 010°01'1919.1
2017-Feb-18 19:33N 43°17' E 009°35'1919.2
2017-Feb-18 18:33N 43°12' E 009°10'1919.2
2017-Feb-18 17:33N 43°05' E 008°45'1919.0
2017-Feb-18 16:33N 42°58' E 008°21'2218.8
2017-Feb-18 15:22N 42°50' E 007°52'20318.8
2017-Feb-18 04:33N 41°39' E 003°35'1918.8
2017-Feb-18 03:33N 41°32' E 003°11'2018.9
2017-Feb-18 02:31N 41°26' E 002°46'1819.0
2017-Feb-18 01:33N 41°19' E 002°24'1110.5
2017-Feb-18 00:33N 41°21' E 002°10'1 0.2
2017-Feb-17 21:11N 41°20' E 002°09'0 0.0
2017-Feb-17 19:33N 41°20' E 002°09'0 0.0
2017-Feb-17 11:21N 41°20' E 002°09'6 6.4
2017-Feb-17 10:28N 41°15' E 002°10'1314.5
2017-Feb-17 09:33N 41°03' E 002°04'1615.6
2017-Feb-17 08:33N 40°48' E 001°56'1615.6
2017-Feb-17 07:33N 40°34' E 001°48'1615.9
2017-Feb-17 06:33N 40°19' E 001°40'1716.5
2017-Feb-17 05:33N 40°04' E 001°31'1616.4
2017-Feb-17 04:33N 39°48' E 001°23'1616.3
2017-Feb-17 03:33N 39°33' E 001°15'4919.7
2017-Feb-17 01:04N 38°48' E 000°51'32316.5
2017-Feb-16 05:26N 36°02' W 004°59'1214.0
2017-Feb-16 04:33N 36°00' W 005°14'1413.6
2017-Feb-16 03:33N 35°56' W 005°30'20911.6
2017-Feb-15 09:33N 37°23' W 009°27'1815.4
2017-Feb-15 08:21N 37°41' W 009°19'1215.2
2017-Feb-15 07:33N 37°52' W 009°14'1515.4
2017-Feb-15 06:33N 38°07' W 009°08'1515.3
2017-Feb-15 05:33N 38°21' W 009°02'1211.7
2017-Feb-15 04:34N 38°31' W 008°54'1 1.3
2017-Feb-15 03:28N 38°31' W 008°52'0 0.0
2017-Feb-15 02:29N 38°31' W 008°52'0 0.0
2017-Feb-15 01:26N 38°31' W 008°52'0 0.0
2017-Feb-15 00:29N 38°31' W 008°52'0 0.0
2017-Feb-14 23:31N 38°31' W 008°52'0 0.0
2017-Feb-14 22:31N 38°31' W 008°52'0 0.0
2017-Feb-14 21:31N 38°31' W 008°52'0 0.0
2017-Feb-14 20:32N 38°31' W 008°52'0 0.0
2017-Feb-14 19:33N 38°31' W 008°52'4 3.8
2017-Feb-14 18:33N 38°29' W 008°56'8 7.6
2017-Feb-14 17:33N 38°23' W 009°03'1313.2
2017-Feb-14 16:33N 38°24' W 009°20'1817.8
2017-Feb-14 15:33N 38°30' W 009°41'1818.4
2017-Feb-14 14:33N 38°36' W 010°03'1817.8
2017-Feb-14 13:34N 38°54' W 010°06'70617.2
2017-Feb-12 20:27N 49°48' W 003°54'1516.9
2017-Feb-12 19:34N 49°59' W 003°38'1414.0
2017-Feb-12 18:34N 50°11' W 003°27'1211.8
2017-Feb-12 17:33N 50°22' W 003°27'1211.8
2017-Feb-12 16:34N 50°26' W 003°09'2020.4
2017-Feb-12 15:34N 50°25' W 002°37'2322.2
2017-Feb-12 14:32N 50°26' W 002°01'2222.0
2017-Feb-12 13:33N 50°27' W 001°27'2121.3
2017-Feb-12 12:33N 50°29' W 000°54'1918.8
2017-Feb-12 11:33N 50°31' W 000°25'1717.3
2017-Feb-12 10:34N 50°33' E 000°02'1616.4
2017-Feb-12 09:33N 50°37' E 000°27'1717.3
2017-Feb-12 08:33N 50°45' E 000°52'2019.9
2017-Feb-12 07:33N 50°55' E 001°18'2121.0
2017-Feb-12 06:33N 51°11' E 001°41'1918.9
2017-Feb-12 05:33N 51°25' E 002°01'1717.4
2017-Feb-12 04:34N 51°23' E 002°29'1515.1
2017-Feb-12 03:33N 51°23' E 002°53'1616.2
2017-Feb-12 02:33N 51°24' E 003°19'1312.7
2017-Feb-12 01:33N 51°26' E 003°39'1110.9
2017-Feb-12 00:33N 51°22' E 003°55'9 8.9
2017-Feb-11 23:33N 51°23' E 004°10'7 6.7
2017-Feb-11 22:34N 51°17' E 004°16'1 1.2
2017-Feb-11 21:34N 51°16' E 004°15'1 1.1
2017-Feb-11 20:26N 51°16' E 004°13'0 0.0
2017-Feb-11 19:30N 51°16' E 004°13'0 0.0
2017-Feb-11 18:33N 51°16' E 004°13'0 0.0
2017-Feb-11 17:30N 51°16' E 004°13'0 0.0
2017-Feb-11 16:27N 51°16' E 004°13'0 0.0
2017-Feb-11 15:30N 51°16' E 004°13'0 0.0
2017-Feb-11 14:27N 51°16' E 004°13'0 0.0
2017-Feb-11 13:29N 51°16' E 004°13'0 0.0
2017-Feb-11 12:33N 51°16' E 004°13'0 0.0
2017-Feb-11 11:31N 51°16' E 004°13'0 0.0
2017-Feb-11 10:27N 51°16' E 004°13'0 0.0
2017-Feb-11 09:31N 51°16' E 004°13'0 0.0
2017-Feb-11 08:27N 51°16' E 004°13'0 0.0
2017-Feb-11 07:30N 51°16' E 004°13'0 0.0
2017-Feb-11 06:33N 51°16' E 004°13'0 0.0
2017-Feb-11 05:26N 51°16' E 004°13'0 0.0
2017-Feb-11 04:22N 51°16' E 004°13'0 0.0
2017-Feb-11 03:26N 51°16' E 004°13'0 0.0
2017-Feb-11 02:30N 51°16' E 004°13'0 0.0
2017-Feb-11 01:28N 51°16' E 004°13'0 0.0
2017-Feb-11 00:32N 51°16' E 004°13'0 0.0
2017-Feb-10 23:28N 51°16' E 004°13'0 0.0
2017-Feb-10 22:33N 51°16' E 004°13'0 0.0
2017-Feb-10 21:28N 51°16' E 004°13'0 0.0
2017-Feb-10 20:32N 51°16' E 004°13'1 1.2
2017-Feb-10 19:33N 51°16' E 004°14'1 0.8
2017-Feb-10 18:33N 51°17' E 004°15'  

Dump ship's entire track history